Letham, United Kingdom
Current Conditions -  °F | °C
As of 8:20 PM on Friday 21 Nov 2014 (Local Time) from EGPN Reporting Station
Light Rain Light Rain  
Wind Chill: 42°   Ceiling: 4000
Heat Index: 48°   Visibility: 6mi
Dew Point: 45°   Wind: 18mph
Humidity: 87%   Direction: 130°SE
Pressure: 29.91"   Gusts: NA
Location:  56.62°N, 2.77°W
Report Text: EGPN 212020Z 13016KT 9000 -RA SCT015 SCT025 BKN040 09/07 Q1013
Loading
Personal Weather Stations






























Interactive Weather Map New forecast layout! Learn more

10-Day Weather Forecast

Advertisements
Track Severe Weather on mobile